sensor_id;sensor_type;location;lat;lon;timestamp;pressure;altitude;pressure_sealevel;temperature;humidity
29045;BME280;16133;49.486;12.176;2023-07-29T00:00:36;96757.75;;;17.17;100.00
29045;BME280;16133;49.486;12.176;2023-07-29T00:03:02;96770.28;;;17.28;100.00
29045;BME280;16133;49.486;12.176;2023-07-29T00:05:27;96767.34;;;17.30;100.00
29045;BME280;16133;49.486;12.176;2023-07-29T00:07:56;96767.13;;;17.31;100.00
29045;BME280;16133;49.486;12.176;2023-07-29T00:10:21;96763.63;;;17.31;100.00
29045;BME280;16133;49.486;12.176;2023-07-29T00:12:46;96764.44;;;17.31;100.00
29045;BME280;16133;49.486;12.176;2023-07-29T00:15:12;96766.09;;;17.32;100.00
29045;BME280;16133;49.486;12.176;2023-07-29T00:17:37;96773.06;;;17.33;100.00
29045;BME280;16133;49.486;12.176;2023-07-29T00:20:03;96781.09;;;17.33;100.00
29045;BME280;16133;49.486;12.176;2023-07-29T00:22:28;96779.25;;;17.34;100.00
29045;BME280;16133;49.486;12.176;2023-07-29T00:24:54;96780.06;;;17.34;100.00
29045;BME280;16133;49.486;12.176;2023-07-29T00:27:23;96770.63;;;17.32;100.00
29045;BME280;16133;49.486;12.176;2023-07-29T00:29:49;96775.50;;;17.35;100.00
29045;BME280;16133;49.486;12.176;2023-07-29T00:32:14;96781.09;;;17.33;100.00
29045;BME280;16133;49.486;12.176;2023-07-29T00:34:40;96778.09;;;17.30;100.00
29045;BME280;16133;49.486;12.176;2023-07-29T00:37:05;96775.06;;;17.26;100.00
29045;BME280;16133;49.486;12.176;2023-07-29T00:39:31;96778.69;;;17.20;100.00
29045;BME280;16133;49.486;12.176;2023-07-29T00:41:57;96788.84;;;17.18;100.00
29045;BME280;16133;49.486;12.176;2023-07-29T00:44:23;96786.63;;;17.15;100.00
29045;BME280;16133;49.486;12.176;2023-07-29T00:46:50;96787.09;;;17.12;100.00
29045;BME280;16133;49.486;12.176;2023-07-29T00:49:15;96784.44;;;17.12;100.00
29045;BME280;16133;49.486;12.176;2023-07-29T00:51:41;96781.75;;;17.12;100.00
29045;BME280;16133;49.486;12.176;2023-07-29T00:54:07;96782.56;;;17.12;100.00
29045;BME280;16133;49.486;12.176;2023-07-29T00:56:32;96778.47;;;17.10;100.00
29045;BME280;16133;49.486;12.176;2023-07-29T00:58:58;96780.94;;;17.11;100.00
29045;BME280;16133;49.486;12.176;2023-07-29T01:01:27;96769.38;;;17.11;100.00
29045;BME280;16133;49.486;12.176;2023-07-29T01:03:52;96771.03;;;17.12;100.00
29045;BME280;16133;49.486;12.176;2023-07-29T01:09:05;96780.34;;;17.09;100.00
29045;BME280;16133;49.486;12.176;2023-07-29T01:14:16;96773.94;;;17.10;100.00
29045;BME280;16133;49.486;12.176;2023-07-29T01:16:52;96768.56;;;17.10;100.00
29045;BME280;16133;49.486;12.176;2023-07-29T01:21:55;96758.88;;;17.09;100.00
29045;BME280;16133;49.486;12.176;2023-07-29T01:24:21;96762.38;;;17.10;100.00
29045;BME280;16133;49.486;12.176;2023-07-29T01:26:46;96754.13;;;17.11;100.00
29045;BME280;16133;49.486;12.176;2023-07-29T01:29:11;96751.22;;;17.13;100.00
29045;BME280;16133;49.486;12.176;2023-07-29T01:31:43;96749.09;;;17.15;100.00
29045;BME280;16133;49.486;12.176;2023-07-29T01:34:26;96749.91;;;17.15;100.00
29045;BME280;16133;49.486;12.176;2023-07-29T01:36:57;96753.41;;;17.16;100.00
29045;BME280;16133;49.486;12.176;2023-07-29T01:39:26;96753.16;;;17.17;100.00
29045;BME280;16133;49.486;12.176;2023-07-29T01:41:54;96761.22;;;17.17;100.00
29045;BME280;16133;49.486;12.176;2023-07-29T01:44:20;96763.66;;;17.19;100.00
29045;BME280;16133;49.486;12.176;2023-07-29T01:46:46;96763.66;;;17.19;100.00
29045;BME280;16133;49.486;12.176;2023-07-29T01:49:12;96765.53;;;17.18;100.00
29045;BME280;16133;49.486;12.176;2023-07-29T01:51:37;96765.53;;;17.18;100.00
29045;BME280;16133;49.486;12.176;2023-07-29T01:54:03;96766.34;;;17.19;100.00
29045;BME280;16133;49.486;12.176;2023-07-29T01:56:29;96765.78;;;17.17;100.00
29045;BME280;16133;49.486;12.176;2023-07-29T01:58:55;96768.47;;;17.17;100.00
29045;BME280;16133;49.486;12.176;2023-07-29T02:01:20;96776.50;;;17.17;100.00
29045;BME280;16133;49.486;12.176;2023-07-29T02:03:46;96778.94;;;17.18;100.00
29045;BME280;16133;49.486;12.176;2023-07-29T02:06:11;96771.69;;;17.19;100.00
29045;BME280;16133;49.486;12.176;2023-07-29T02:08:37;96777.06;;;17.19;100.00
29045;BME280;16133;49.486;12.176;2023-07-29T02:11:05;96776.84;;;17.20;100.00
29045;BME280;16133;49.486;12.176;2023-07-29T02:13:31;96776.84;;;17.20;100.00
29045;BME280;16133;49.486;12.176;2023-07-29T02:15:57;96774.94;;;17.21;100.00
29045;BME280;16133;49.486;12.176;2023-07-29T02:18:22;96775.53;;;17.23;100.00
29045;BME280;16133;49.486;12.176;2023-07-29T02:20:47;96777.41;;;17.23;100.00
29045;BME280;16133;49.486;12.176;2023-07-29T02:23:15;96780.91;;;17.23;100.00
29045;BME280;16133;49.486;12.176;2023-07-29T02:25:42;96775.53;;;17.23;100.00
29045;BME280;16133;49.486;12.176;2023-07-29T02:28:07;96774.50;;;17.24;100.00
29045;BME280;16133;49.486;12.176;2023-07-29T02:30:33;96779.88;;;17.24;100.00
29045;BME280;16133;49.486;12.176;2023-07-29T02:32:58;96777.88;;;17.19;100.00
29045;BME280;16133;49.486;12.176;2023-07-29T02:35:26;96790.34;;;17.26;100.00
29045;BME280;16133;49.486;12.176;2023-07-29T02:37:52;96793.84;;;17.26;100.00
29045;BME280;16133;49.486;12.176;2023-07-29T02:40:17;96786.03;;;17.25;100.00
29045;BME280;16133;49.486;12.176;2023-07-29T02:42:42;96781.72;;;17.24;100.00
29045;BME280;16133;49.486;12.176;2023-07-29T02:45:08;96785.44;;;17.23;100.00
29045;BME280;16133;49.486;12.176;2023-07-29T02:47:37;96783.25;;;17.19;100.00
29045;BME280;16133;49.486;12.176;2023-07-29T02:50:03;96790.47;;;17.19;100.00
29045;BME280;16133;49.486;12.176;2023-07-29T02:52:28;96788.00;;;17.17;100.00
29045;BME280;16133;49.486;12.176;2023-07-29T02:54:54;96796.88;;;17.18;100.00
29045;BME280;16133;49.486;12.176;2023-07-29T02:57:22;96793.63;;;17.16;100.00
29045;BME280;16133;49.486;12.176;2023-07-29T02:59:48;96788.75;;;17.13;100.00
29045;BME280;16133;49.486;12.176;2023-07-29T03:02:13;96785.47;;;17.11;100.00
29045;BME280;16133;49.486;12.176;2023-07-29T03:04:41;96754.03;;;16.95;100.00
29045;BME280;16133;49.486;12.176;2023-07-29T03:07:07;96784.66;;;17.10;100.00
29045;BME280;16133;49.486;12.176;2023-07-29T03:09:32;96785.47;;;17.11;100.00
29045;BME280;16133;49.486;12.176;2023-07-29T03:11:58;96791.66;;;17.11;100.00
29045;BME280;16133;49.486;12.176;2023-07-29T03:14:24;96779.06;;;17.12;100.00
29045;BME280;16133;49.486;12.176;2023-07-29T03:16:50;96774.28;;;17.14;100.00
29045;BME280;16133;49.486;12.176;2023-07-29T03:19:15;96774.75;;;17.11;100.00
29045;BME280;16133;49.486;12.176;2023-07-29T03:21:41;96781.16;;;17.10;100.00
29045;BME280;16133;49.486;12.176;2023-07-29T03:24:06;96769.03;;;17.07;100.00
29045;BME280;16133;49.486;12.176;2023-07-29T03:26:32;96780.00;;;17.06;100.00
29045;BME280;16133;49.486;12.176;2023-07-29T03:28:57;96771.16;;;17.05;100.00
29045;BME280;16133;49.486;12.176;2023-07-29T03:31:23;96772.53;;;17.08;100.00
29045;BME280;16133;49.486;12.176;2023-07-29T03:33:48;96761.22;;;17.06;100.00
29045;BME280;16133;49.486;12.176;2023-07-29T03:36:14;96762.31;;;17.05;100.00
29045;BME280;16133;49.486;12.176;2023-07-29T03:38:39;96761.84;;;16.96;100.00
29045;BME280;16133;49.486;12.176;2023-07-29T03:41:07;96768.59;;;16.87;100.00
29045;BME280;16133;49.486;12.176;2023-07-29T03:43:34;96769.91;;;16.85;100.00
29045;BME280;16133;49.486;12.176;2023-07-29T03:46:00;96769.91;;;16.85;100.00
29045;BME280;16133;49.486;12.176;2023-07-29T03:48:26;96758.94;;;16.86;100.00
29045;BME280;16133;49.486;12.176;2023-07-29T03:50:51;96746.94;;;16.89;100.00
29045;BME280;16133;49.486;12.176;2023-07-29T03:53:16;96749.75;;;16.94;100.00
29045;BME280;16133;49.486;12.176;2023-07-29T03:55:42;96754.03;;;16.95;100.00
29045;BME280;16133;49.486;12.176;2023-07-29T03:58:08;96750.91;;;16.98;100.00
29045;BME280;16133;49.486;12.176;2023-07-29T04:00:34;96754.72;;;17.02;100.00
29045;BME280;16133;49.486;12.176;2023-07-29T04:02:59;96764.38;;;17.03;100.00
29045;BME280;16133;49.486;12.176;2023-07-29T04:05:24;96764.16;;;17.04;100.00
29045;BME280;16133;49.486;12.176;2023-07-29T04:07:50;96769.88;;;17.08;100.00
29045;BME280;16133;49.486;12.176;2023-07-29T04:10:16;96772.53;;;17.08;100.00
29045;BME280;16133;49.486;12.176;2023-07-29T04:12:43;96765.88;;;17.10;100.00
29045;BME280;16133;49.486;12.176;2023-07-29T04:15:12;96768.34;;;17.12;100.00
29045;BME280;16133;49.486;12.176;2023-07-29T04:17:37;96768.91;;;17.14;100.00
29045;BME280;16133;49.486;12.176;2023-07-29T04:20:02;96783.47;;;17.18;100.00
29045;BME280;16133;49.486;12.176;2023-07-29T04:22:28;96781.94;;;17.22;100.00
29045;BME280;16133;49.486;12.176;2023-07-29T04:24:53;96780.91;;;17.23;100.00
29045;BME280;16133;49.486;12.176;2023-07-29T04:27:19;96781.47;;;17.25;100.00
29045;BME280;16133;49.486;12.176;2023-07-29T04:29:44;96789.06;;;17.28;100.00
29045;BME280;16133;49.486;12.176;2023-07-29T04:32:10;96799.31;;;17.31;100.00
29045;BME280;16133;49.486;12.176;2023-07-29T04:34:35;96813.28;;;17.33;100.00
29045;BME280;16133;49.486;12.176;2023-07-29T04:37:01;96806.66;;;17.36;100.00
29045;BME280;16133;49.486;12.176;2023-07-29T04:39:26;96805.91;;;17.40;100.00
29045;BME280;16133;49.486;12.176;2023-07-29T04:41:52;96809.75;;;17.44;100.00
29045;BME280;16133;49.486;12.176;2023-07-29T04:44:17;96820.38;;;17.51;100.00
29045;BME280;16133;49.486;12.176;2023-07-29T04:46:43;96825.63;;;17.57;100.00
29045;BME280;16133;49.486;12.176;2023-07-29T04:49:08;96829.47;;;17.61;100.00
29045;BME280;16133;49.486;12.176;2023-07-29T04:51:34;96849.97;;;17.67;100.00
29045;BME280;16133;49.486;12.176;2023-07-29T04:53:59;96853.91;;;17.77;100.00
29045;BME280;16133;49.486;12.176;2023-07-29T04:56:25;96856.22;;;17.85;100.00
29045;BME280;16133;49.486;12.176;2023-07-29T04:58:51;96867.63;;;17.92;100.00
29045;BME280;16133;49.486;12.176;2023-07-29T05:01:16;96880.44;;;18.01;100.00
29045;BME280;16133;49.486;12.176;2023-07-29T05:03:42;96891.72;;;18.15;100.00
29045;BME280;16133;49.486;12.176;2023-07-29T05:06:08;96890.34;;;18.29;100.00
29045;BME280;16133;49.486;12.176;2023-07-29T05:08:33;96893.47;;;18.38;100.00
29045;BME280;16133;49.486;12.176;2023-07-29T05:10:59;96902.53;;;18.48;100.00
29045;BME280;16133;49.486;12.176;2023-07-29T05:13:24;96926.13;;;18.58;100.00
29045;BME280;16133;49.486;12.176;2023-07-29T05:15:50;96935.06;;;18.63;100.00
29045;BME280;16133;49.486;12.176;2023-07-29T05:18:16;96936.94;;;18.63;100.00
29045;BME280;16133;49.486;12.176;2023-07-29T05:20:42;96935.41;;;18.67;100.00
29045;BME280;16133;49.486;12.176;2023-07-29T05:23:07;96924.69;;;18.84;100.00
29045;BME280;16133;49.486;12.176;2023-07-29T05:25:33;96925.66;;;19.11;100.00
29045;BME280;16133;49.486;12.176;2023-07-29T05:28:01;96930.78;;;19.29;100.00
29045;BME280;16133;49.486;12.176;2023-07-29T05:30:28;96934.44;;;19.56;100.00
29045;BME280;16133;49.486;12.176;2023-07-29T05:32:56;96941.59;;;19.89;100.00
29045;BME280;16133;49.486;12.176;2023-07-29T05:35:22;96949.88;;;20.26;100.00
29045;BME280;16133;49.486;12.176;2023-07-29T05:37:48;96956.75;;;20.61;100.00
29045;BME280;16133;49.486;12.176;2023-07-29T05:40:13;96964.91;;;20.92;100.00
29045;BME280;16133;49.486;12.176;2023-07-29T05:42:39;96964.50;;;21.37;100.00
29045;BME280;16133;49.486;12.176;2023-07-29T05:45:04;96953.22;;;21.87;100.00
29045;BME280;16133;49.486;12.176;2023-07-29T05:47:31;96948.03;;;22.33;100.00
29045;BME280;16133;49.486;12.176;2023-07-29T05:49:56;96959.75;;;22.64;99.19
29045;BME280;16133;49.486;12.176;2023-07-29T05:52:22;96955.50;;;23.08;96.61
29045;BME280;16133;49.486;12.176;2023-07-29T05:54:47;96953.88;;;23.68;95.51
29045;BME280;16133;49.486;12.176;2023-07-29T05:57:13;96954.28;;;24.25;88.53
29045;BME280;16133;49.486;12.176;2023-07-29T05:59:38;96946.41;;;24.29;86.14
29045;BME280;16133;49.486;12.176;2023-07-29T06:02:04;96947.19;;;24.35;84.18
29045;BME280;16133;49.486;12.176;2023-07-29T06:04:30;96938.91;;;25.04;82.22
29045;BME280;16133;49.486;12.176;2023-07-29T06:06:55;96945.13;;;25.72;79.21
29045;BME280;16133;49.486;12.176;2023-07-29T06:09:22;96936.66;;;26.02;74.52
29045;BME280;16133;49.486;12.176;2023-07-29T06:11:47;96927.16;;;26.00;73.44
29045;BME280;16133;49.486;12.176;2023-07-29T06:14:13;96938.44;;;25.88;73.54
29045;BME280;16133;49.486;12.176;2023-07-29T06:16:39;96934.41;;;25.57;73.78
29045;BME280;16133;49.486;12.176;2023-07-29T06:19:04;96934.50;;;25.47;74.06
29045;BME280;16133;49.486;12.176;2023-07-29T06:21:30;96929.53;;;25.59;74.23
29045;BME280;16133;49.486;12.176;2023-07-29T06:23:55;96916.88;;;25.44;73.58
29045;BME280;16133;49.486;12.176;2023-07-29T06:26:21;96916.22;;;25.23;73.51
29045;BME280;16133;49.486;12.176;2023-07-29T06:28:46;96921.91;;;24.93;74.83
29045;BME280;16133;49.486;12.176;2023-07-29T06:31:12;96923.97;;;24.67;75.44
29045;BME280;16133;49.486;12.176;2023-07-29T06:33:37;96925.72;;;24.43;77.67
29045;BME280;16133;49.486;12.176;2023-07-29T06:36:03;96936.44;;;24.14;78.06
29045;BME280;16133;49.486;12.176;2023-07-29T06:38:28;96941.59;;;23.96;80.10
29045;BME280;16133;49.486;12.176;2023-07-29T06:40:54;96934.59;;;23.85;81.33
29045;BME280;16133;49.486;12.176;2023-07-29T06:43:19;96942.19;;;23.77;82.37
29045;BME280;16133;49.486;12.176;2023-07-29T06:45:45;96941.69;;;23.75;83.96
29045;BME280;16133;49.486;12.176;2023-07-29T06:48:11;96933.56;;;23.65;82.71
29045;BME280;16133;49.486;12.176;2023-07-29T06:50:36;96931.69;;;23.56;83.29
29045;BME280;16133;49.486;12.176;2023-07-29T06:53:02;96938.75;;;23.57;84.58
29045;BME280;16133;49.486;12.176;2023-07-29T06:55:28;96940.03;;;23.69;86.11
29045;BME280;16133;49.486;12.176;2023-07-29T06:57:53;96933.47;;;23.96;84.57
29045;BME280;16133;49.486;12.176;2023-07-29T07:00:19;96926.94;;;24.17;83.15
29045;BME280;16133;49.486;12.176;2023-07-29T07:02:44;96933.38;;;24.31;81.52
29045;BME280;16133;49.486;12.176;2023-07-29T07:05:10;96925.78;;;24.33;81.59
29045;BME280;16133;49.486;12.176;2023-07-29T07:07:36;96911.22;;;24.09;80.67
29045;BME280;16133;49.486;12.176;2023-07-29T07:10:01;96899.91;;;23.87;81.43
29045;BME280;16133;49.486;12.176;2023-07-29T07:12:26;96910.75;;;23.81;82.23
29045;BME280;16133;49.486;12.176;2023-07-29T07:14:52;96914.28;;;23.87;83.00
29045;BME280;16133;49.486;12.176;2023-07-29T07:17:17;96919.66;;;24.02;83.28
29045;BME280;16133;49.486;12.176;2023-07-29T07:19:43;96906.22;;;24.36;82.31
29045;BME280;16133;49.486;12.176;2023-07-29T07:22:09;96905.44;;;24.80;81.42
29045;BME280;16133;49.486;12.176;2023-07-29T07:24:34;96900.59;;;25.10;77.83
29045;BME280;16133;49.486;12.176;2023-07-29T07:26:59;96906.22;;;25.19;76.82
29045;BME280;16133;49.486;12.176;2023-07-29T07:29:25;96906.28;;;25.14;76.05
29045;BME280;16133;49.486;12.176;2023-07-29T07:31:52;96896.78;;;25.11;77.14
29045;BME280;16133;49.486;12.176;2023-07-29T07:34:19;96894.06;;;25.11;76.97
29045;BME280;16133;49.486;12.176;2023-07-29T07:36:44;96891.66;;;25.10;76.61
29045;BME280;16133;49.486;12.176;2023-07-29T07:39:11;96893.13;;;24.92;75.88
29045;BME280;16133;49.486;12.176;2023-07-29T07:41:36;96895.03;;;24.53;76.73
29045;BME280;16133;49.486;12.176;2023-07-29T07:44:01;96901.19;;;24.09;80.16
29045;BME280;16133;49.486;12.176;2023-07-29T07:46:28;96894.56;;;23.66;83.56
29045;BME280;16133;49.486;12.176;2023-07-29T07:48:53;96906.22;;;23.31;87.51
29045;BME280;16133;49.486;12.176;2023-07-29T07:51:19;96912.22;;;22.98;89.39
29045;BME280;16133;49.486;12.176;2023-07-29T07:53:44;96916.53;;;22.84;91.74
29045;BME280;16133;49.486;12.176;2023-07-29T07:56:10;96918.63;;;22.67;93.86
29045;BME280;16133;49.486;12.176;2023-07-29T07:58:35;96913.81;;;22.69;96.23
29045;BME280;16133;49.486;12.176;2023-07-29T08:01:05;96917.06;;;22.71;96.41
29045;BME280;16133;49.486;12.176;2023-07-29T08:03:31;96910.06;;;22.95;96.62
29045;BME280;16133;49.486;12.176;2023-07-29T08:05:57;96911.66;;;23.21;94.36
29045;BME280;16133;49.486;12.176;2023-07-29T08:08:22;96898.91;;;23.57;90.94
29045;BME280;16133;49.486;12.176;2023-07-29T08:10:53;96911.56;;;23.87;87.60
29045;BME280;16133;49.486;12.176;2023-07-29T08:13:20;96920.69;;;24.11;87.42
29045;BME280;16133;49.486;12.176;2023-07-29T08:15:52;96915.69;;;24.39;85.45
29045;BME280;16133;49.486;12.176;2023-07-29T08:18:18;96910.75;;;24.51;84.09
29045;BME280;16133;49.486;12.176;2023-07-29T08:20:54;96916.69;;;24.58;83.27
29045;BME280;16133;49.486;12.176;2023-07-29T08:23:21;96915.44;;;24.35;80.87
29045;BME280;16133;49.486;12.176;2023-07-29T08:25:57;96923.69;;;24.10;83.54
29045;BME280;16133;49.486;12.176;2023-07-29T08:28:31;96919.44;;;23.84;85.40
29045;BME280;16133;49.486;12.176;2023-07-29T08:30:56;96923.31;;;23.52;87.79
29045;BME280;16133;49.486;12.176;2023-07-29T08:33:22;96928.16;;;23.20;89.90
29045;BME280;16133;49.486;12.176;2023-07-29T08:35:48;96923.03;;;22.98;94.52
29045;BME280;16133;49.486;12.176;2023-07-29T08:38:13;96928.94;;;22.70;96.31
29045;BME280;16133;49.486;12.176;2023-07-29T08:40:45;96928.88;;;22.45;97.43
29045;BME280;16133;49.486;12.176;2023-07-29T08:43:11;96930.44;;;22.35;100.00
29045;BME280;16133;49.486;12.176;2023-07-29T08:45:39;96934.75;;;22.21;100.00
29045;BME280;16133;49.486;12.176;2023-07-29T08:48:08;96928.78;;;22.19;100.00
29045;BME280;16133;49.486;12.176;2023-07-29T08:50:36;96926.91;;;22.25;100.00
29045;BME280;16133;49.486;12.176;2023-07-29T08:53:04;96916.94;;;22.35;100.00
29045;BME280;16133;49.486;12.176;2023-07-29T08:55:31;96909.41;;;22.48;100.00
29045;BME280;16133;49.486;12.176;2023-07-29T08:58:00;96926.19;;;22.50;100.00
29045;BME280;16133;49.486;12.176;2023-07-29T09:00:26;96930.19;;;22.32;100.00
29045;BME280;16133;49.486;12.176;2023-07-29T09:02:53;96918.47;;;22.06;100.00
29045;BME280;16133;49.486;12.176;2023-07-29T09:05:21;96909.41;;;21.80;100.00
29045;BME280;16133;49.486;12.176;2023-07-29T09:07:47;96893.63;;;21.57;100.00
29045;BME280;16133;49.486;12.176;2023-07-29T09:10:13;96892.94;;;21.35;100.00
29045;BME280;16133;49.486;12.176;2023-07-29T09:12:39;96904.75;;;21.24;100.00
29045;BME280;16133;49.486;12.176;2023-07-29T09:15:05;96905.69;;;21.08;100.00
29045;BME280;16133;49.486;12.176;2023-07-29T09:17:34;96912.63;;;20.98;100.00
29045;BME280;16133;49.486;12.176;2023-07-29T09:19:59;96913.44;;;20.99;100.00
29045;BME280;16133;49.486;12.176;2023-07-29T09:22:26;96917.78;;;21.00;100.00
29045;BME280;16133;49.486;12.176;2023-07-29T09:24:52;96913.53;;;20.77;100.00
29045;BME280;16133;49.486;12.176;2023-07-29T09:27:28;96918.19;;;20.87;100.00
29045;BME280;16133;49.486;12.176;2023-07-29T09:29:56;96926.09;;;20.98;100.00
29045;BME280;16133;49.486;12.176;2023-07-29T09:32:23;96929.91;;;21.03;100.00
29045;BME280;16133;49.486;12.176;2023-07-29T09:34:49;96930.69;;;20.98;100.00
29045;BME280;16133;49.486;12.176;2023-07-29T09:37:20;96943.72;;;20.79;100.00
29045;BME280;16133;49.486;12.176;2023-07-29T09:39:47;96920.09;;;20.60;100.00
29045;BME280;16133;49.486;12.176;2023-07-29T09:42:20;96930.34;;;20.36;100.00
29045;BME280;16133;49.486;12.176;2023-07-29T09:44:46;96938.88;;;20.06;100.00
29045;BME280;16133;49.486;12.176;2023-07-29T09:47:23;96919.72;;;19.81;100.00
29045;BME280;16133;49.486;12.176;2023-07-29T09:49:50;96919.44;;;19.44;100.00
29045;BME280;16133;49.486;12.176;2023-07-29T09:52:19;96932.19;;;19.15;100.00
29045;BME280;16133;49.486;12.176;2023-07-29T09:54:46;96924.03;;;18.93;100.00
29045;BME280;16133;49.486;12.176;2023-07-29T09:57:14;96904.06;;;18.73;100.00
29045;BME280;16133;49.486;12.176;2023-07-29T09:59:41;96923.28;;;18.65;100.00
29045;BME280;16133;49.486;12.176;2023-07-29T10:02:16;96904.16;;;18.49;100.00
29045;BME280;16133;49.486;12.176;2023-07-29T10:04:42;96920.66;;;18.41;100.00
29045;BME280;16133;49.486;12.176;2023-07-29T10:07:09;96928.06;;;18.34;100.00
29045;BME280;16133;49.486;12.176;2023-07-29T10:09:36;96927.63;;;18.26;100.00
29045;BME280;16133;49.486;12.176;2023-07-29T10:12:04;96932.56;;;18.17;100.00
29045;BME280;16133;49.486;12.176;2023-07-29T10:14:31;96931.66;;;18.11;100.00
29045;BME280;16133;49.486;12.176;2023-07-29T10:16:56;96922.22;;;18.09;100.00
29045;BME280;16133;49.486;12.176;2023-07-29T10:19:26;96931.22;;;18.03;100.00
29045;BME280;16133;49.486;12.176;2023-07-29T10:21:52;96944.41;;;18.04;100.00
29045;BME280;16133;49.486;12.176;2023-07-29T10:24:24;96956.31;;;18.08;100.00
29045;BME280;16133;49.486;12.176;2023-07-29T10:26:58;96957.91;;;18.09;100.00
29045;BME280;16133;49.486;12.176;2023-07-29T10:29:24;96959.31;;;18.12;100.00
29045;BME280;16133;49.486;12.176;2023-07-29T10:31:52;96972.75;;;18.12;100.00
29045;BME280;16133;49.486;12.176;2023-07-29T10:34:19;96974.47;;;18.18;100.00
29045;BME280;16133;49.486;12.176;2023-07-29T10:36:46;96969.44;;;18.22;100.00
29045;BME280;16133;49.486;12.176;2023-07-29T10:39:13;96973.16;;;18.21;100.00
29045;BME280;16133;49.486;12.176;2023-07-29T10:42:07;96965.91;;;18.33;100.00
29045;BME280;16133;49.486;12.176;2023-07-29T10:44:52;96957.06;;;18.49;100.00
29045;BME280;16133;49.486;12.176;2023-07-29T10:47:28;96951.28;;;18.69;100.00
29045;BME280;16133;49.486;12.176;2023-07-29T10:49:56;96958.09;;;18.88;100.00
29045;BME280;16133;49.486;12.176;2023-07-29T10:55:02;96954.34;;;19.05;100.00
29045;BME280;16133;49.486;12.176;2023-07-29T10:57:37;96959.63;;;19.17;100.00
29045;BME280;16133;49.486;12.176;2023-07-29T11:00:04;96955.00;;;19.29;100.00
29045;BME280;16133;49.486;12.176;2023-07-29T11:02:32;96959.31;;;19.30;100.00
29045;BME280;16133;49.486;12.176;2023-07-29T11:05:07;96942.53;;;19.23;100.00
29045;BME280;16133;49.486;12.176;2023-07-29T11:07:47;96941.94;;;19.21;100.00
29045;BME280;16133;49.486;12.176;2023-07-29T11:10:16;96941.84;;;19.33;100.00
29045;BME280;16133;49.486;12.176;2023-07-29T11:12:49;96920.81;;;19.63;100.00
29045;BME280;16133;49.486;12.176;2023-07-29T11:15:25;96922.41;;;20.02;100.00
29045;BME280;16133;49.486;12.176;2023-07-29T11:18:01;96929.72;;;20.50;100.00
29045;BME280;16133;49.486;12.176;2023-07-29T11:20:28;96920.81;;;20.82;100.00
29045;BME280;16133;49.486;12.176;2023-07-29T11:22:56;96925.94;;;21.10;100.00
29045;BME280;16133;49.486;12.176;2023-07-29T11:25:23;96919.13;;;21.34;100.00
29045;BME280;16133;49.486;12.176;2023-07-29T11:27:51;96909.09;;;21.72;100.00
29045;BME280;16133;49.486;12.176;2023-07-29T11:30:17;96912.84;;;22.18;100.00
29045;BME280;16133;49.486;12.176;2023-07-29T11:32:44;96915.72;;;22.68;100.00
29045;BME280;16133;49.486;12.176;2023-07-29T11:35:14;96898.69;;;23.18;100.00
29045;BME280;16133;49.486;12.176;2023-07-29T11:37:41;96895.09;;;23.63;100.00
29045;BME280;16133;49.486;12.176;2023-07-29T11:40:08;96904.22;;;23.93;99.44
29045;BME280;16133;49.486;12.176;2023-07-29T11:42:36;96897.38;;;24.15;98.10
29045;BME280;16133;49.486;12.176;2023-07-29T11:45:02;96911.16;;;24.29;94.87
29045;BME280;16133;49.486;12.176;2023-07-29T11:47:29;96919.25;;;24.34;92.06
29045;BME280;16133;49.486;12.176;2023-07-29T11:49:58;96916.25;;;24.41;92.18
29045;BME280;16133;49.486;12.176;2023-07-29T11:52:24;96912.66;;;24.50;92.42
29045;BME280;16133;49.486;12.176;2023-07-29T11:54:49;96909.81;;;24.70;92.37
29045;BME280;16133;49.486;12.176;2023-07-29T11:57:16;96906.78;;;24.77;92.46
29045;BME280;16133;49.486;12.176;2023-07-29T11:59:42;96906.56;;;25.12;93.77
29045;BME280;16133;49.486;12.176;2023-07-29T12:02:12;96907.91;;;25.44;89.18
29045;BME280;16133;49.486;12.176;2023-07-29T12:04:41;96908.34;;;25.80;85.99
29045;BME280;16133;49.486;12.176;2023-07-29T12:07:08;96907.56;;;26.27;85.03
29045;BME280;16133;49.486;12.176;2023-07-29T12:09:35;96910.56;;;26.68;82.18
29045;BME280;16133;49.486;12.176;2023-07-29T12:12:01;96920.47;;;26.96;78.70
29045;BME280;16133;49.486;12.176;2023-07-29T12:14:31;96919.97;;;27.13;76.88
29045;BME280;16133;49.486;12.176;2023-07-29T12:17:00;96907.28;;;27.03;77.07
29045;BME280;16133;49.486;12.176;2023-07-29T12:19:31;96895.97;;;26.77;76.32
29045;BME280;16133;49.486;12.176;2023-07-29T12:21:57;96886.25;;;26.52;78.03
29045;BME280;16133;49.486;12.176;2023-07-29T12:24:22;96878.81;;;26.21;79.02
29045;BME280;16133;49.486;12.176;2023-07-29T12:26:48;96873.78;;;25.61;81.53
29045;BME280;16133;49.486;12.176;2023-07-29T12:29:14;96874.94;;;25.50;82.99
29045;BME280;16133;49.486;12.176;2023-07-29T12:31:40;96866.38;;;25.38;85.57
29045;BME280;16133;49.486;12.176;2023-07-29T12:34:05;96873.47;;;25.34;87.63
29045;BME280;16133;49.486;12.176;2023-07-29T12:36:45;96857.66;;;25.41;87.40
29045;BME280;16133;49.486;12.176;2023-07-29T12:41:42;96852.84;;;25.62;85.90
29045;BME280;16133;49.486;12.176;2023-07-29T12:44:08;96859.56;;;25.93;84.60
29045;BME280;16133;49.486;12.176;2023-07-29T12:46:33;96863.59;;;26.20;82.24
29045;BME280;16133;49.486;12.176;2023-07-29T12:48:59;96857.72;;;26.50;81.90
29045;BME280;16133;49.486;12.176;2023-07-29T12:51:24;96851.38;;;26.73;80.31
29045;BME280;16133;49.486;12.176;2023-07-29T12:53:49;96851.31;;;26.78;77.42